sensor_id;sensor_type;location;lat;lon;timestamp;temperature;humidity
23562;DHT22;11959;49.418;8.728;2023-11-22T00:00:36;7.70;99.90
23562;DHT22;11959;49.418;8.728;2023-11-22T00:03:02;7.70;99.90
23562;DHT22;11959;49.418;8.728;2023-11-22T00:05:28;7.60;99.90
23562;DHT22;11959;49.418;8.728;2023-11-22T00:07:54;7.60;99.90
23562;DHT22;11959;49.418;8.728;2023-11-22T00:10:19;7.50;99.90
23562;DHT22;11959;49.418;8.728;2023-11-22T00:12:45;7.40;99.90
23562;DHT22;11959;49.418;8.728;2023-11-22T00:15:11;7.30;99.90
23562;DHT22;11959;49.418;8.728;2023-11-22T00:17:37;7.20;99.90
23562;DHT22;11959;49.418;8.728;2023-11-22T00:20:03;7.20;99.90
23562;DHT22;11959;49.418;8.728;2023-11-22T00:22:34;7.10;99.90
23562;DHT22;11959;49.418;8.728;2023-11-22T00:25:00;7.10;99.90
23562;DHT22;11959;49.418;8.728;2023-11-22T00:27:27;7.10;99.90
23562;DHT22;11959;49.418;8.728;2023-11-22T00:29:53;7.00;99.90
23562;DHT22;11959;49.418;8.728;2023-11-22T00:32:19;7.00;99.90
23562;DHT22;11959;49.418;8.728;2023-11-22T00:34:45;6.90;99.90
23562;DHT22;11959;49.418;8.728;2023-11-22T00:37:10;6.90;99.90
23562;DHT22;11959;49.418;8.728;2023-11-22T00:39:36;6.90;99.90
23562;DHT22;11959;49.418;8.728;2023-11-22T00:42:03;6.90;99.90
23562;DHT22;11959;49.418;8.728;2023-11-22T00:44:29;6.80;99.90
23562;DHT22;11959;49.418;8.728;2023-11-22T00:46:55;6.80;99.90
23562;DHT22;11959;49.418;8.728;2023-11-22T00:49:22;6.70;99.90
23562;DHT22;11959;49.418;8.728;2023-11-22T00:51:48;6.60;99.90
23562;DHT22;11959;49.418;8.728;2023-11-22T00:54:14;6.60;99.90
23562;DHT22;11959;49.418;8.728;2023-11-22T00:56:40;6.60;99.90
23562;DHT22;11959;49.418;8.728;2023-11-22T00:59:06;6.50;99.90
23562;DHT22;11959;49.418;8.728;2023-11-22T01:01:32;6.50;99.90
23562;DHT22;11959;49.418;8.728;2023-11-22T01:03:57;6.40;99.90
23562;DHT22;11959;49.418;8.728;2023-11-22T01:06:24;6.40;99.90
23562;DHT22;11959;49.418;8.728;2023-11-22T01:08:49;6.40;99.90
23562;DHT22;11959;49.418;8.728;2023-11-22T01:11:16;6.40;99.90
23562;DHT22;11959;49.418;8.728;2023-11-22T01:13:41;6.40;99.90
23562;DHT22;11959;49.418;8.728;2023-11-22T01:16:09;6.30;99.90
23562;DHT22;11959;49.418;8.728;2023-11-22T01:18:35;6.30;99.90
23562;DHT22;11959;49.418;8.728;2023-11-22T01:21:01;6.30;99.90
23562;DHT22;11959;49.418;8.728;2023-11-22T01:23:26;6.30;99.90
23562;DHT22;11959;49.418;8.728;2023-11-22T01:25:53;6.20;99.90
23562;DHT22;11959;49.418;8.728;2023-11-22T01:28:19;6.20;99.90
23562;DHT22;11959;49.418;8.728;2023-11-22T01:30:45;6.20;99.90
23562;DHT22;11959;49.418;8.728;2023-11-22T01:33:11;6.20;99.90
23562;DHT22;11959;49.418;8.728;2023-11-22T01:35:37;6.20;99.90
23562;DHT22;11959;49.418;8.728;2023-11-22T01:38:04;6.20;99.90
23562;DHT22;11959;49.418;8.728;2023-11-22T01:40:30;6.10;99.90
23562;DHT22;11959;49.418;8.728;2023-11-22T01:42:57;6.10;99.90
23562;DHT22;11959;49.418;8.728;2023-11-22T01:45:23;6.10;99.90
23562;DHT22;11959;49.418;8.728;2023-11-22T01:47:49;6.10;99.90
23562;DHT22;11959;49.418;8.728;2023-11-22T01:50:15;6.00;99.90
23562;DHT22;11959;49.418;8.728;2023-11-22T01:52:42;6.00;99.90
23562;DHT22;11959;49.418;8.728;2023-11-22T01:55:09;5.90;99.90
23562;DHT22;11959;49.418;8.728;2023-11-22T01:57:35;5.90;99.90
23562;DHT22;11959;49.418;8.728;2023-11-22T02:00:06;5.90;99.90
23562;DHT22;11959;49.418;8.728;2023-11-22T02:02:35;5.80;99.90
23562;DHT22;11959;49.418;8.728;2023-11-22T02:05:14;5.70;99.90
23562;DHT22;11959;49.418;8.728;2023-11-22T02:07:40;5.70;99.90
23562;DHT22;11959;49.418;8.728;2023-11-22T02:10:07;5.70;99.90
23562;DHT22;11959;49.418;8.728;2023-11-22T02:12:33;5.60;99.90
23562;DHT22;11959;49.418;8.728;2023-11-22T02:14:59;5.60;99.90
23562;DHT22;11959;49.418;8.728;2023-11-22T02:17:25;5.60;99.90
23562;DHT22;11959;49.418;8.728;2023-11-22T02:19:50;5.50;99.90
23562;DHT22;11959;49.418;8.728;2023-11-22T02:22:17;5.50;99.90
23562;DHT22;11959;49.418;8.728;2023-11-22T02:24:42;5.50;99.90
23562;DHT22;11959;49.418;8.728;2023-11-22T02:27:08;5.40;99.90
23562;DHT22;11959;49.418;8.728;2023-11-22T02:29:34;5.50;99.90
23562;DHT22;11959;49.418;8.728;2023-11-22T02:31:59;5.40;99.90
23562;DHT22;11959;49.418;8.728;2023-11-22T02:34:25;5.40;99.90
23562;DHT22;11959;49.418;8.728;2023-11-22T02:36:51;5.40;99.90
23562;DHT22;11959;49.418;8.728;2023-11-22T02:39:16;5.40;99.90
23562;DHT22;11959;49.418;8.728;2023-11-22T02:41:42;5.40;99.90
23562;DHT22;11959;49.418;8.728;2023-11-22T02:44:08;5.30;99.90
23562;DHT22;11959;49.418;8.728;2023-11-22T02:46:33;5.30;99.90
23562;DHT22;11959;49.418;8.728;2023-11-22T02:48:59;5.30;99.90
23562;DHT22;11959;49.418;8.728;2023-11-22T02:51:25;5.20;99.90
23562;DHT22;11959;49.418;8.728;2023-11-22T02:53:51;5.20;99.90
23562;DHT22;11959;49.418;8.728;2023-11-22T02:56:17;5.10;99.90
23562;DHT22;11959;49.418;8.728;2023-11-22T02:58:44;5.10;99.90
23562;DHT22;11959;49.418;8.728;2023-11-22T03:01:09;5.10;99.90
23562;DHT22;11959;49.418;8.728;2023-11-22T03:03:35;4.90;99.90
23562;DHT22;11959;49.418;8.728;2023-11-22T03:06:01;4.90;99.90
23562;DHT22;11959;49.418;8.728;2023-11-22T03:08:27;4.90;99.90
23562;DHT22;11959;49.418;8.728;2023-11-22T03:10:58;4.90;99.90
23562;DHT22;11959;49.418;8.728;2023-11-22T03:13:23;4.90;99.90
23562;DHT22;11959;49.418;8.728;2023-11-22T03:15:49;4.90;99.90
23562;DHT22;11959;49.418;8.728;2023-11-22T03:18:15;4.90;99.90
23562;DHT22;11959;49.418;8.728;2023-11-22T03:20:41;4.90;99.90
23562;DHT22;11959;49.418;8.728;2023-11-22T03:23:08;4.80;99.90
23562;DHT22;11959;49.418;8.728;2023-11-22T03:25:36;4.80;99.90
23562;DHT22;11959;49.418;8.728;2023-11-22T03:28:03;4.80;99.90
23562;DHT22;11959;49.418;8.728;2023-11-22T03:30:29;4.70;99.90
23562;DHT22;11959;49.418;8.728;2023-11-22T03:32:54;4.60;99.90
23562;DHT22;11959;49.418;8.728;2023-11-22T03:35:21;4.60;99.90
23562;DHT22;11959;49.418;8.728;2023-11-22T03:37:47;4.50;99.90
23562;DHT22;11959;49.418;8.728;2023-11-22T03:40:12;4.50;99.90
23562;DHT22;11959;49.418;8.728;2023-11-22T03:42:39;4.50;99.90
23562;DHT22;11959;49.418;8.728;2023-11-22T03:45:06;4.40;99.90
23562;DHT22;11959;49.418;8.728;2023-11-22T03:47:32;4.40;99.90
23562;DHT22;11959;49.418;8.728;2023-11-22T03:49:58;4.30;99.90
23562;DHT22;11959;49.418;8.728;2023-11-22T03:52:25;4.40;99.90
23562;DHT22;11959;49.418;8.728;2023-11-22T03:54:52;4.30;99.90
23562;DHT22;11959;49.418;8.728;2023-11-22T03:57:18;4.30;99.90
23562;DHT22;11959;49.418;8.728;2023-11-22T03:59:43;4.20;99.90
23562;DHT22;11959;49.418;8.728;2023-11-22T04:02:09;4.20;99.90
23562;DHT22;11959;49.418;8.728;2023-11-22T04:04:37;4.10;99.90
23562;DHT22;11959;49.418;8.728;2023-11-22T04:07:05;4.10;99.90
23562;DHT22;11959;49.418;8.728;2023-11-22T04:09:31;4.10;99.90
23562;DHT22;11959;49.418;8.728;2023-11-22T04:11:56;4.00;99.90
23562;DHT22;11959;49.418;8.728;2023-11-22T04:14:22;4.00;99.90
23562;DHT22;11959;49.418;8.728;2023-11-22T04:16:48;3.90;99.90
23562;DHT22;11959;49.418;8.728;2023-11-22T04:19:13;3.90;99.90
23562;DHT22;11959;49.418;8.728;2023-11-22T04:21:39;3.90;99.90
23562;DHT22;11959;49.418;8.728;2023-11-22T04:24:05;3.90;99.90
23562;DHT22;11959;49.418;8.728;2023-11-22T04:26:31;3.90;99.90
23562;DHT22;11959;49.418;8.728;2023-11-22T04:28:57;3.80;99.90
23562;DHT22;11959;49.418;8.728;2023-11-22T04:31:24;3.80;99.90
23562;DHT22;11959;49.418;8.728;2023-11-22T04:33:49;3.80;99.90
23562;DHT22;11959;49.418;8.728;2023-11-22T04:36:15;3.60;99.90
23562;DHT22;11959;49.418;8.728;2023-11-22T04:38:42;3.60;99.90
23562;DHT22;11959;49.418;8.728;2023-11-22T04:41:08;3.60;99.90
23562;DHT22;11959;49.418;8.728;2023-11-22T04:43:33;3.50;99.90
23562;DHT22;11959;49.418;8.728;2023-11-22T04:45:59;3.50;99.90
23562;DHT22;11959;49.418;8.728;2023-11-22T04:48:25;3.60;99.90
23562;DHT22;11959;49.418;8.728;2023-11-22T04:50:50;3.50;99.90
23562;DHT22;11959;49.418;8.728;2023-11-22T04:53:16;3.50;99.90
23562;DHT22;11959;49.418;8.728;2023-11-22T04:55:42;3.50;99.90
23562;DHT22;11959;49.418;8.728;2023-11-22T04:58:08;3.50;99.90
23562;DHT22;11959;49.418;8.728;2023-11-22T05:00:34;3.50;99.90
23562;DHT22;11959;49.418;8.728;2023-11-22T05:02:59;3.40;99.90
23562;DHT22;11959;49.418;8.728;2023-11-22T05:05:25;3.40;99.90
23562;DHT22;11959;49.418;8.728;2023-11-22T05:07:51;3.40;99.90
23562;DHT22;11959;49.418;8.728;2023-11-22T05:10:17;3.30;99.90
23562;DHT22;11959;49.418;8.728;2023-11-22T05:12:43;3.20;99.90
23562;DHT22;11959;49.418;8.728;2023-11-22T05:15:10;3.30;99.90
23562;DHT22;11959;49.418;8.728;2023-11-22T05:17:36;3.20;99.90
23562;DHT22;11959;49.418;8.728;2023-11-22T05:20:01;3.20;99.90
23562;DHT22;11959;49.418;8.728;2023-11-22T05:22:27;3.10;99.90
23562;DHT22;11959;49.418;8.728;2023-11-22T05:24:53;3.10;99.90
23562;DHT22;11959;49.418;8.728;2023-11-22T05:27:19;3.10;99.90
23562;DHT22;11959;49.418;8.728;2023-11-22T05:29:44;3.10;99.90
23562;DHT22;11959;49.418;8.728;2023-11-22T05:32:10;3.00;99.90
23562;DHT22;11959;49.418;8.728;2023-11-22T05:34:36;3.10;99.90
23562;DHT22;11959;49.418;8.728;2023-11-22T05:37:02;3.00;99.90
23562;DHT22;11959;49.418;8.728;2023-11-22T05:39:28;3.00;99.90
23562;DHT22;11959;49.418;8.728;2023-11-22T05:41:54;3.00;99.90
23562;DHT22;11959;49.418;8.728;2023-11-22T05:44:20;3.00;99.90
23562;DHT22;11959;49.418;8.728;2023-11-22T05:46:45;3.00;99.90
23562;DHT22;11959;49.418;8.728;2023-11-22T05:49:11;2.90;99.90
23562;DHT22;11959;49.418;8.728;2023-11-22T05:51:37;2.90;99.90
23562;DHT22;11959;49.418;8.728;2023-11-22T05:54:03;2.90;99.90
23562;DHT22;11959;49.418;8.728;2023-11-22T05:56:29;2.80;99.90
23562;DHT22;11959;49.418;8.728;2023-11-22T05:58:55;2.90;99.90
23562;DHT22;11959;49.418;8.728;2023-11-22T06:01:20;2.90;99.90
23562;DHT22;11959;49.418;8.728;2023-11-22T06:03:46;2.90;99.90
23562;DHT22;11959;49.418;8.728;2023-11-22T06:06:12;2.80;99.90
23562;DHT22;11959;49.418;8.728;2023-11-22T06:08:39;2.80;99.90
23562;DHT22;11959;49.418;8.728;2023-11-22T06:11:05;2.90;99.90
23562;DHT22;11959;49.418;8.728;2023-11-22T06:13:31;2.90;99.90
23562;DHT22;11959;49.418;8.728;2023-11-22T06:15:57;2.90;99.90
23562;DHT22;11959;49.418;8.728;2023-11-22T06:18:23;2.90;99.90
23562;DHT22;11959;49.418;8.728;2023-11-22T06:20:54;2.90;99.90
23562;DHT22;11959;49.418;8.728;2023-11-22T06:23:20;2.90;99.90
23562;DHT22;11959;49.418;8.728;2023-11-22T06:25:45;2.80;99.90
23562;DHT22;11959;49.418;8.728;2023-11-22T06:28:11;2.90;99.90
23562;DHT22;11959;49.418;8.728;2023-11-22T06:30:37;2.80;99.90
23562;DHT22;11959;49.418;8.728;2023-11-22T06:33:03;2.80;99.90
23562;DHT22;11959;49.418;8.728;2023-11-22T06:35:29;2.80;99.90
23562;DHT22;11959;49.418;8.728;2023-11-22T06:37:54;2.70;99.90
23562;DHT22;11959;49.418;8.728;2023-11-22T06:40:20;2.70;99.90
23562;DHT22;11959;49.418;8.728;2023-11-22T06:42:48;2.80;99.90
23562;DHT22;11959;49.418;8.728;2023-11-22T06:45:14;2.80;99.90
23562;DHT22;11959;49.418;8.728;2023-11-22T06:47:41;2.70;99.90
23562;DHT22;11959;49.418;8.728;2023-11-22T06:50:08;2.70;99.90
23562;DHT22;11959;49.418;8.728;2023-11-22T06:52:41;2.70;99.90
23562;DHT22;11959;49.418;8.728;2023-11-22T06:55:08;2.70;99.90
23562;DHT22;11959;49.418;8.728;2023-11-22T06:57:37;2.70;99.90
23562;DHT22;11959;49.418;8.728;2023-11-22T07:00:04;2.70;99.90
23562;DHT22;11959;49.418;8.728;2023-11-22T07:02:30;2.70;99.90
23562;DHT22;11959;49.418;8.728;2023-11-22T07:04:56;2.70;99.90
23562;DHT22;11959;49.418;8.728;2023-11-22T07:07:24;2.70;99.90
23562;DHT22;11959;49.418;8.728;2023-11-22T07:09:50;2.70;99.90
23562;DHT22;11959;49.418;8.728;2023-11-22T07:12:16;2.60;99.90
23562;DHT22;11959;49.418;8.728;2023-11-22T07:14:42;2.70;99.90
23562;DHT22;11959;49.418;8.728;2023-11-22T07:17:09;2.60;99.90
23562;DHT22;11959;49.418;8.728;2023-11-22T07:19:35;2.60;99.90
23562;DHT22;11959;49.418;8.728;2023-11-22T07:22:06;2.60;99.90
23562;DHT22;11959;49.418;8.728;2023-11-22T07:24:42;2.60;99.90
23562;DHT22;11959;49.418;8.728;2023-11-22T07:27:12;2.60;99.90
23562;DHT22;11959;49.418;8.728;2023-11-22T07:29:42;2.60;99.90
23562;DHT22;11959;49.418;8.728;2023-11-22T07:32:09;2.70;99.90
23562;DHT22;11959;49.418;8.728;2023-11-22T07:34:36;2.70;99.90
23562;DHT22;11959;49.418;8.728;2023-11-22T07:37:02;2.60;99.90
23562;DHT22;11959;49.418;8.728;2023-11-22T07:39:28;2.60;99.90
23562;DHT22;11959;49.418;8.728;2023-11-22T07:41:54;2.60;99.90
23562;DHT22;11959;49.418;8.728;2023-11-22T07:44:21;2.60;99.90
23562;DHT22;11959;49.418;8.728;2023-11-22T07:46:47;2.60;99.90
23562;DHT22;11959;49.418;8.728;2023-11-22T07:49:12;2.60;99.90
23562;DHT22;11959;49.418;8.728;2023-11-22T07:51:39;2.60;99.90
23562;DHT22;11959;49.418;8.728;2023-11-22T07:54:05;2.60;99.90
23562;DHT22;11959;49.418;8.728;2023-11-22T07:56:31;2.60;99.90
23562;DHT22;11959;49.418;8.728;2023-11-22T07:58:58;2.70;99.90
23562;DHT22;11959;49.418;8.728;2023-11-22T08:01:24;2.70;99.90
23562;DHT22;11959;49.418;8.728;2023-11-22T08:03:51;2.60;99.90
23562;DHT22;11959;49.418;8.728;2023-11-22T08:06:17;2.60;99.90
23562;DHT22;11959;49.418;8.728;2023-11-22T08:08:43;2.60;99.90
23562;DHT22;11959;49.418;8.728;2023-11-22T08:11:11;2.70;99.90
23562;DHT22;11959;49.418;8.728;2023-11-22T08:13:44;2.60;99.90
23562;DHT22;11959;49.418;8.728;2023-11-22T08:16:11;2.60;99.90
23562;DHT22;11959;49.418;8.728;2023-11-22T08:18:40;2.70;99.90
23562;DHT22;11959;49.418;8.728;2023-11-22T08:21:08;2.70;99.90
23562;DHT22;11959;49.418;8.728;2023-11-22T08:23:34;2.80;99.90
23562;DHT22;11959;49.418;8.728;2023-11-22T08:26:00;2.70;99.90
23562;DHT22;11959;49.418;8.728;2023-11-22T08:28:26;2.70;99.90
23562;DHT22;11959;49.418;8.728;2023-11-22T08:30:52;2.70;99.90
23562;DHT22;11959;49.418;8.728;2023-11-22T08:33:18;2.80;99.90
23562;DHT22;11959;49.418;8.728;2023-11-22T08:35:44;2.80;99.90
23562;DHT22;11959;49.418;8.728;2023-11-22T08:38:18;2.80;99.90
23562;DHT22;11959;49.418;8.728;2023-11-22T08:40:44;2.90;99.90
23562;DHT22;11959;49.418;8.728;2023-11-22T08:43:10;2.90;99.90
23562;DHT22;11959;49.418;8.728;2023-11-22T08:45:36;2.90;99.90
23562;DHT22;11959;49.418;8.728;2023-11-22T08:48:01;2.90;99.90
23562;DHT22;11959;49.418;8.728;2023-11-22T08:50:28;3.00;99.90
23562;DHT22;11959;49.418;8.728;2023-11-22T08:52:54;3.00;99.90
23562;DHT22;11959;49.418;8.728;2023-11-22T08:55:20;3.00;99.90
23562;DHT22;11959;49.418;8.728;2023-11-22T08:57:50;3.00;99.90
23562;DHT22;11959;49.418;8.728;2023-11-22T09:00:18;3.00;99.90
23562;DHT22;11959;49.418;8.728;2023-11-22T09:02:51;3.10;99.90
23562;DHT22;11959;49.418;8.728;2023-11-22T09:05:16;3.00;99.90
23562;DHT22;11959;49.418;8.728;2023-11-22T09:07:42;3.00;99.90
23562;DHT22;11959;49.418;8.728;2023-11-22T09:10:10;3.00;99.90
23562;DHT22;11959;49.418;8.728;2023-11-22T09:12:38;3.00;99.90
23562;DHT22;11959;49.418;8.728;2023-11-22T09:15:11;3.00;99.90
23562;DHT22;11959;49.418;8.728;2023-11-22T09:17:39;3.00;99.90
23562;DHT22;11959;49.418;8.728;2023-11-22T09:20:09;3.10;99.90
23562;DHT22;11959;49.418;8.728;2023-11-22T09:22:43;3.10;99.90
23562;DHT22;11959;49.418;8.728;2023-11-22T09:25:21;3.10;99.90
23562;DHT22;11959;49.418;8.728;2023-11-22T09:27:49;3.10;99.90
23562;DHT22;11959;49.418;8.728;2023-11-22T09:30:21;3.20;99.90
23562;DHT22;11959;49.418;8.728;2023-11-22T09:33:15;3.20;99.90
23562;DHT22;11959;49.418;8.728;2023-11-22T09:35:42;3.30;99.90
23562;DHT22;11959;49.418;8.728;2023-11-22T09:38:09;3.40;99.90
23562;DHT22;11959;49.418;8.728;2023-11-22T09:40:44;3.30;99.90
23562;DHT22;11959;49.418;8.728;2023-11-22T09:43:11;3.40;99.90
23562;DHT22;11959;49.418;8.728;2023-11-22T09:45:37;3.40;99.90
23562;DHT22;11959;49.418;8.728;2023-11-22T09:48:15;3.40;99.90
23562;DHT22;11959;49.418;8.728;2023-11-22T09:50:57;3.50;99.90
23562;DHT22;11959;49.418;8.728;2023-11-22T09:56:01;3.60;99.90
23562;DHT22;11959;49.418;8.728;2023-11-22T09:58:30;3.60;99.90
23562;DHT22;11959;49.418;8.728;2023-11-22T10:00:59;3.60;99.90
23562;DHT22;11959;49.418;8.728;2023-11-22T10:03:26;3.70;99.90
23562;DHT22;11959;49.418;8.728;2023-11-22T10:05:57;3.70;99.90
23562;DHT22;11959;49.418;8.728;2023-11-22T10:08:27;3.70;99.90
23562;DHT22;11959;49.418;8.728;2023-11-22T10:10:55;3.90;99.90
23562;DHT22;11959;49.418;8.728;2023-11-22T10:13:21;3.80;99.90
23562;DHT22;11959;49.418;8.728;2023-11-22T10:15:51;3.80;99.90
23562;DHT22;11959;49.418;8.728;2023-11-22T10:18:20;3.90;99.90
23562;DHT22;11959;49.418;8.728;2023-11-22T10:20:48;3.90;99.90
23562;DHT22;11959;49.418;8.728;2023-11-22T10:23:18;3.90;99.90
23562;DHT22;11959;49.418;8.728;2023-11-22T10:28:13;4.00;99.90
23562;DHT22;11959;49.418;8.728;2023-11-22T10:30:38;4.00;99.90
23562;DHT22;11959;49.418;8.728;2023-11-22T10:33:06;4.00;99.90
23562;DHT22;11959;49.418;8.728;2023-11-22T10:35:32;4.20;99.90
23562;DHT22;11959;49.418;8.728;2023-11-22T10:37:59;4.30;99.90
23562;DHT22;11959;49.418;8.728;2023-11-22T10:40:29;4.30;99.90
23562;DHT22;11959;49.418;8.728;2023-11-22T10:42:56;4.30;99.90
23562;DHT22;11959;49.418;8.728;2023-11-22T10:45:23;4.40;99.90
23562;DHT22;11959;49.418;8.728;2023-11-22T10:47:52;4.50;99.90
23562;DHT22;11959;49.418;8.728;2023-11-22T10:50:20;4.60;99.90
23562;DHT22;11959;49.418;8.728;2023-11-22T10:52:47;4.70;99.90
23562;DHT22;11959;49.418;8.728;2023-11-22T10:55:15;4.80;99.90
23562;DHT22;11959;49.418;8.728;2023-11-22T10:57:46;4.90;99.90
23562;DHT22;11959;49.418;8.728;2023-11-22T11:00:17;4.90;99.90
23562;DHT22;11959;49.418;8.728;2023-11-22T11:02:45;5.00;99.90
23562;DHT22;11959;49.418;8.728;2023-11-22T11:05:21;5.00;99.90
23562;DHT22;11959;49.418;8.728;2023-11-22T11:10:30;5.10;99.90
23562;DHT22;11959;49.418;8.728;2023-11-22T11:12:56;5.10;99.90
23562;DHT22;11959;49.418;8.728;2023-11-22T11:15:22;5.20;99.90
23562;DHT22;11959;49.418;8.728;2023-11-22T11:17:49;5.20;99.90
23562;DHT22;11959;49.418;8.728;2023-11-22T11:20:16;5.20;99.90
23562;DHT22;11959;49.418;8.728;2023-11-22T11:22:43;5.20;99.90
23562;DHT22;11959;49.418;8.728;2023-11-22T11:25:14;5.20;99.90
23562;DHT22;11959;49.418;8.728;2023-11-22T11:27:41;5.30;99.90
23562;DHT22;11959;49.418;8.728;2023-11-22T11:30:45;5.30;99.90
23562;DHT22;11959;49.418;8.728;2023-11-22T11:33:13;5.30;99.90
23562;DHT22;11959;49.418;8.728;2023-11-22T11:35:44;5.30;99.90
23562;DHT22;11959;49.418;8.728;2023-11-22T11:38:14;5.30;99.90
23562;DHT22;11959;49.418;8.728;2023-11-22T11:40:45;5.30;99.90
23562;DHT22;11959;49.418;8.728;2023-11-22T11:43:11;5.20;99.90
23562;DHT22;11959;49.418;8.728;2023-11-22T11:45:39;5.20;99.90
23562;DHT22;11959;49.418;8.728;2023-11-22T11:48:06;5.30;99.90
23562;DHT22;11959;49.418;8.728;2023-11-22T11:50:32;5.30;99.90
23562;DHT22;11959;49.418;8.728;2023-11-22T11:52:58;5.30;99.90
23562;DHT22;11959;49.418;8.728;2023-11-22T11:55:25;5.20;99.90
23562;DHT22;11959;49.418;8.728;2023-11-22T11:57:53;5.20;99.90
23562;DHT22;11959;49.418;8.728;2023-11-22T12:00:20;5.30;99.90
23562;DHT22;11959;49.418;8.728;2023-11-22T12:02:48;5.20;99.90
23562;DHT22;11959;49.418;8.728;2023-11-22T12:05:14;5.20;99.90
23562;DHT22;11959;49.418;8.728;2023-11-22T12:07:39;5.20;99.90
23562;DHT22;11959;49.418;8.728;2023-11-22T12:10:05;5.20;99.90
23562;DHT22;11959;49.418;8.728;2023-11-22T12:12:32;5.20;99.90
23562;DHT22;11959;49.418;8.728;2023-11-22T12:14:58;5.20;99.90
23562;DHT22;11959;49.418;8.728;2023-11-22T12:17:26;5.30;99.90
23562;DHT22;11959;49.418;8.728;2023-11-22T12:19:52;5.30;99.90
23562;DHT22;11959;49.418;8.728;2023-11-22T12:22:19;5.30;99.90
23562;DHT22;11959;49.418;8.728;2023-11-22T12:24:46;5.30;99.90
23562;DHT22;11959;49.418;8.728;2023-11-22T12:27:11;5.30;99.90
23562;DHT22;11959;49.418;8.728;2023-11-22T12:29:37;5.30;99.90
23562;DHT22;11959;49.418;8.728;2023-11-22T12:32:05;5.30;99.90
23562;DHT22;11959;49.418;8.728;2023-11-22T12:34:32;5.30;99.90
23562;DHT22;11959;49.418;8.728;2023-11-22T12:36:59;5.40;99.90
23562;DHT22;11959;49.418;8.728;2023-11-22T12:39:24;5.30;99.90
23562;DHT22;11959;49.418;8.728;2023-11-22T12:41:52;5.30;99.90
23562;DHT22;11959;49.418;8.728;2023-11-22T12:44:19;5.40;99.90
23562;DHT22;11959;49.418;8.728;2023-11-22T12:46:48;5.40;99.90
23562;DHT22;11959;49.418;8.728;2023-11-22T12:49:18;5.40;99.90
23562;DHT22;11959;49.418;8.728;2023-11-22T12:51:51;5.40;99.90
23562;DHT22;11959;49.418;8.728;2023-11-22T12:54:18;5.40;99.90
23562;DHT22;11959;49.418;8.728;2023-11-22T12:56:47;5.40;99.90
23562;DHT22;11959;49.418;8.728;2023-11-22T12:59:14;5.30;99.90
23562;DHT22;11959;49.418;8.728;2023-11-22T13:01:41;5.30;99.90
23562;DHT22;11959;49.418;8.728;2023-11-22T13:04:06;5.40;99.90
23562;DHT22;11959;49.418;8.728;2023-11-22T13:06:33;5.40;99.90
23562;DHT22;11959;49.418;8.728;2023-11-22T13:08:59;5.40;99.90
23562;DHT22;11959;49.418;8.728;2023-11-22T13:11:24;5.30;99.90
23562;DHT22;11959;49.418;8.728;2023-11-22T13:13:51;5.30;99.90
23562;DHT22;11959;49.418;8.728;2023-11-22T13:16:17;5.30;99.90
23562;DHT22;11959;49.418;8.728;2023-11-22T13:18:42;5.20;99.90
23562;DHT22;11959;49.418;8.728;2023-11-22T13:21:08;5.20;99.90
23562;DHT22;11959;49.418;8.728;2023-11-22T13:23:34;5.20;99.90
23562;DHT22;11959;49.418;8.728;2023-11-22T13:25:59;5.10;99.90
23562;DHT22;11959;49.418;8.728;2023-11-22T13:28:25;5.20;99.90
23562;DHT22;11959;49.418;8.728;2023-11-22T13:30:51;5.10;99.90
23562;DHT22;11959;49.418;8.728;2023-11-22T13:33:17;5.10;99.90
23562;DHT22;11959;49.418;8.728;2023-11-22T13:35:43;5.20;99.90
23562;DHT22;11959;49.418;8.728;2023-11-22T13:38:09;5.20;99.90
23562;DHT22;11959;49.418;8.728;2023-11-22T13:40:39;5.20;99.90
23562;DHT22;11959;49.418;8.728;2023-11-22T13:43:12;5.20;99.90
23562;DHT22;11959;49.418;8.728;2023-11-22T13:45:38;5.20;99.90
23562;DHT22;11959;49.418;8.728;2023-11-22T13:48:07;5.20;99.90
23562;DHT22;11959;49.418;8.728;2023-11-22T13:50:35;5.10;99.90
23562;DHT22;11959;49.418;8.728;2023-11-22T13:53:01;5.20;99.90
23562;DHT22;11959;49.418;8.728;2023-11-22T13:55:27;5.20;99.90
23562;DHT22;11959;49.418;8.728;2023-11-22T13:57:55;5.20;99.90
23562;DHT22;11959;49.418;8.728;2023-11-22T14:00:22;5.20;99.90
23562;DHT22;11959;49.418;8.728;2023-11-22T14:02:51;5.20;99.90
23562;DHT22;11959;49.418;8.728;2023-11-22T14:05:18;5.20;99.90
23562;DHT22;11959;49.418;8.728;2023-11-22T14:07:44;5.20;99.90
23562;DHT22;11959;49.418;8.728;2023-11-22T14:10:10;5.30;99.90
23562;DHT22;11959;49.418;8.728;2023-11-22T14:12:37;5.30;99.90
23562;DHT22;11959;49.418;8.728;2023-11-22T14:15:03;5.20;99.90
23562;DHT22;11959;49.418;8.728;2023-11-22T14:17:30;5.20;99.90
23562;DHT22;11959;49.418;8.728;2023-11-22T14:19:56;5.20;99.90
23562;DHT22;11959;49.418;8.728;2023-11-22T14:22:22;5.20;99.90
23562;DHT22;11959;49.418;8.728;2023-11-22T14:24:49;5.10;99.90
23562;DHT22;11959;49.418;8.728;2023-11-22T14:27:16;5.10;99.90
23562;DHT22;11959;49.418;8.728;2023-11-22T14:29:42;5.10;99.90
23562;DHT22;11959;49.418;8.728;2023-11-22T14:32:09;5.00;99.90
23562;DHT22;11959;49.418;8.728;2023-11-22T14:34:35;5.10;99.90
23562;DHT22;11959;49.418;8.728;2023-11-22T14:37:02;5.00;99.90
23562;DHT22;11959;49.418;8.728;2023-11-22T14:39:27;5.00;99.90
23562;DHT22;11959;49.418;8.728;2023-11-22T14:41:55;5.00;99.90
23562;DHT22;11959;49.418;8.728;2023-11-22T14:44:21;5.00;99.90
23562;DHT22;11959;49.418;8.728;2023-11-22T14:46:46;5.00;99.90
23562;DHT22;11959;49.418;8.728;2023-11-22T14:49:13;5.00;99.90
23562;DHT22;11959;49.418;8.728;2023-11-22T14:51:40;5.00;99.90
23562;DHT22;11959;49.418;8.728;2023-11-22T14:54:06;5.00;99.90
23562;DHT22;11959;49.418;8.728;2023-11-22T14:56:32;4.90;99.90
23562;DHT22;11959;49.418;8.728;2023-11-22T14:58:58;4.90;99.90
23562;DHT22;11959;49.418;8.728;2023-11-22T15:01:25;4.90;99.90
23562;DHT22;11959;49.418;8.728;2023-11-22T15:03:51;4.90;99.90
23562;DHT22;11959;49.418;8.728;2023-11-22T15:06:19;4.90;99.90
23562;DHT22;11959;49.418;8.728;2023-11-22T15:08:45;4.90;99.90
23562;DHT22;11959;49.418;8.728;2023-11-22T15:11:11;4.90;99.90
23562;DHT22;11959;49.418;8.728;2023-11-22T15:13:37;4.90;99.90
23562;DHT22;11959;49.418;8.728;2023-11-22T15:16:03;4.90;99.90
23562;DHT22;11959;49.418;8.728;2023-11-22T15:18:28;4.90;99.90
23562;DHT22;11959;49.418;8.728;2023-11-22T15:20:56;4.80;99.90
23562;DHT22;11959;49.418;8.728;2023-11-22T15:23:21;4.80;99.90
23562;DHT22;11959;49.418;8.728;2023-11-22T15:25:47;4.80;99.90
23562;DHT22;11959;49.418;8.728;2023-11-22T15:28:13;4.80;99.90
23562;DHT22;11959;49.418;8.728;2023-11-22T15:30:48;4.80;99.90
23562;DHT22;11959;49.418;8.728;2023-11-22T15:33:22;4.80;99.90
23562;DHT22;11959;49.418;8.728;2023-11-22T15:35:48;4.80;99.90
23562;DHT22;11959;49.418;8.728;2023-11-22T15:38:14;4.70;99.90
23562;DHT22;11959;49.418;8.728;2023-11-22T15:40:39;4.70;99.90
23562;DHT22;11959;49.418;8.728;2023-11-22T15:43:05;4.70;99.90
23562;DHT22;11959;49.418;8.728;2023-11-22T15:45:31;4.70;99.90
23562;DHT22;11959;49.418;8.728;2023-11-22T15:47:57;4.70;99.90
23562;DHT22;11959;49.418;8.728;2023-11-22T15:50:23;4.70;99.90